createdAt,value
2023-01-23T00:02:36.243Z,103147.09
2023-01-23T00:07:40.214Z,103089.53
2023-01-23T00:12:43.400Z,103150.59
2023-01-23T00:17:46.381Z,103152.34
2023-01-23T00:22:50.517Z,103143.66
2023-01-23T00:27:53.136Z,103140.13
2023-01-23T00:32:55.770Z,103144.50
2023-01-23T00:37:59.982Z,103018.91
2023-01-23T00:43:02.921Z,103150.63
2023-01-23T00:48:05.749Z,103141.03
2023-01-23T00:53:09.843Z,103147.13
2023-01-23T00:58:12.920Z,103155.88
2023-01-23T01:03:15.492Z,103149.75
2023-01-23T01:08:19.603Z,103145.38
2023-01-23T01:13:23.647Z,103123.56
2023-01-23T01:18:26.192Z,103052.03
2023-01-23T01:23:30.115Z,103178.53
2023-01-23T01:28:33.565Z,103180.31
2023-01-23T01:33:38.033Z,103171.56
2023-01-23T01:38:41.945Z,103185.56
2023-01-23T01:43:45.297Z,103188.13
2023-01-23T01:48:59.992Z,103189.00
2023-01-23T01:54:10.116Z,103192.50
2023-01-23T01:59:14.021Z,103197.78
2023-01-23T02:04:16.702Z,103192.53
2023-01-23T02:09:25.287Z,103176.81
2023-01-23T02:14:28.469Z,103149.75
2023-01-23T02:19:45.101Z,103126.19
2023-01-23T02:24:57.074Z,103175.06
2023-01-23T02:30:01.109Z,103177.66
2023-01-23T02:35:12.657Z,103159.34
2023-01-23T02:40:17.302Z,103162.78
2023-01-23T02:45:21.422Z,103171.56
2023-01-23T02:50:25.649Z,103168.03
2023-01-23T02:55:30.040Z,103178.50
2023-01-23T03:00:34.001Z,103173.28
2023-01-23T03:05:36.736Z,103129.66
2023-01-23T03:10:39.465Z,103174.16
2023-01-23T03:15:43.407Z,103174.16
2023-01-23T03:20:46.488Z,103161.06
2023-01-23T03:25:49.489Z,103168.94
2023-01-23T03:30:53.561Z,103177.66
2023-01-23T03:35:56.686Z,103059.91
2023-01-23T03:41:17.261Z,103190.75
2023-01-23T03:46:21.683Z,103138.41
2023-01-23T03:51:24.464Z,103196.88
2023-01-23T03:56:27.430Z,103194.25
2023-01-23T04:01:33.152Z,103185.53
2023-01-23T04:06:36.711Z,103187.28
2023-01-23T04:11:39.357Z,103196.88
2023-01-23T04:17:04.585Z,103195.13
2023-01-23T04:22:28.070Z,103193.41
2023-01-23T04:27:51.071Z,103193.38
2023-01-23T04:33:15.144Z,103190.75
2023-01-23T04:38:37.979Z,103187.28
2023-01-23T04:44:30.097Z,103198.63
2023-01-23T04:49:53.564Z,103191.59
2023-01-23T04:54:56.360Z,103195.13
2023-01-23T05:00:00.578Z,103190.78
2023-01-23T05:05:07.230Z,103202.09
2023-01-23T05:10:11.916Z,103197.75
2023-01-23T05:15:15.071Z,103208.22
2023-01-23T05:20:23.424Z,103198.59
2023-01-23T05:25:28.507Z,103198.63
2023-01-23T05:30:33.172Z,103214.31
2023-01-23T05:36:03.616Z,103215.19
2023-01-23T05:41:06.320Z,103206.47
2023-01-23T05:46:32.199Z,103209.94
2023-01-23T05:51:37.338Z,103213.47
2023-01-23T05:56:40.909Z,103215.19
2023-01-23T06:02:02.338Z,103195.16
2023-01-23T06:07:26.266Z,103226.56
2023-01-23T06:12:32.669Z,103230.06
2023-01-23T06:17:35.289Z,103239.66
2023-01-23T06:22:39.385Z,103196.88
2023-01-23T06:27:46.471Z,103256.25
2023-01-23T06:32:49.835Z,103255.38
2023-01-23T06:37:58.230Z,103261.50
2023-01-23T06:43:04.191Z,103275.47
2023-01-23T06:48:07.906Z,103253.66
2023-01-23T06:53:15.208Z,103274.59
2023-01-23T06:58:19.999Z,103283.34
2023-01-23T07:03:24.701Z,103189.91
2023-01-23T07:08:28.956Z,103287.69
2023-01-23T07:13:32.412Z,103292.06
2023-01-23T07:18:35.953Z,103305.16
2023-01-23T07:23:43.094Z,103308.66
2023-01-23T07:28:45.709Z,103308.69
2023-01-23T07:33:48.313Z,103316.53
2023-01-23T07:38:52.236Z,103318.28
2023-01-23T07:43:54.792Z,103335.75
2023-01-23T07:48:57.532Z,103299.94
2023-01-23T07:54:01.550Z,103336.63
2023-01-23T07:59:04.413Z,103336.63
2023-01-23T08:04:07.316Z,103334.00
2023-01-23T08:09:11.530Z,103339.25
2023-01-23T08:14:14.181Z,103340.13
2023-01-23T08:19:16.759Z,103347.13
2023-01-23T08:24:21.116Z,103349.75
2023-01-23T08:29:23.691Z,103358.47
2023-01-23T08:34:26.490Z,103354.97
2023-01-23T08:39:31.093Z,103350.59
2023-01-23T08:51:21.489Z,103347.94
2023-01-23T08:56:26.204Z,103230.06
2023-01-23T09:01:29.447Z,103354.06
2023-01-23T09:06:32.011Z,103352.31
2023-01-23T09:11:37.269Z,103354.06
2023-01-23T09:16:40.804Z,103359.31
2023-01-23T09:21:43.393Z,103365.44
2023-01-23T09:26:47.314Z,103381.16
2023-01-23T09:31:49.997Z,103377.69
2023-01-23T09:36:53.435Z,103380.31
2023-01-23T09:41:57.372Z,103384.66
2023-01-23T09:47:05.743Z,103291.19
2023-01-23T09:52:13.453Z,103404.78
2023-01-23T09:57:22.997Z,103401.28
2023-01-23T10:02:27.052Z,103374.19
2023-01-23T10:07:50.954Z,103396.00
2023-01-23T10:13:09.038Z,103382.91
2023-01-23T10:18:21.676Z,103342.72
2023-01-23T10:23:40.976Z,103393.38
2023-01-23T10:28:47.314Z,103360.19
2023-01-23T10:33:56.352Z,103378.53
2023-01-23T10:39:02.864Z,103379.38
2023-01-23T10:44:15.755Z,103382.88
2023-01-23T10:49:33.265Z,103384.59
2023-01-23T10:54:46.761Z,103381.03
2023-01-23T10:59:56.652Z,103384.56
2023-01-23T11:05:00.463Z,103373.19
2023-01-23T11:10:19.044Z,103347.00
2023-01-23T11:15:25.405Z,103379.28
2023-01-23T11:20:31.825Z,103377.59
2023-01-23T11:25:37.585Z,103364.53
2023-01-23T11:30:48.364Z,103376.69
2023-01-23T11:35:57.375Z,103378.41
2023-01-23T11:48:06.231Z,103390.63
2023-01-23T11:53:30.510Z,103394.16
2023-01-23T11:59:09.047Z,103398.53
2023-01-23T12:04:44.555Z,103394.13
2023-01-23T12:09:59.427Z,103361.88
2023-01-23T12:15:07.608Z,103387.16
2023-01-23T12:20:32.077Z,103386.25
2023-01-23T12:25:36.541Z,103387.16
2023-01-23T12:31:12.439Z,103391.53
2023-01-23T12:36:29.833Z,103398.53
2023-01-23T12:41:37.911Z,103380.13
2023-01-23T12:46:45.845Z,103373.09
2023-01-23T12:51:54.560Z,103363.47
2023-01-23T12:56:58.678Z,103241.19
2023-01-23T13:02:10.985Z,103367.81
2023-01-23T13:07:25.832Z,103371.34
2023-01-23T13:12:29.616Z,103362.56
2023-01-23T13:17:37.826Z,103369.56
2023-01-23T13:22:41.810Z,103363.47
2023-01-23T13:27:52.774Z,103351.22
2023-01-23T13:33:00.584Z,103367.81
2023-01-23T13:38:32.088Z,103366.09
2023-01-23T13:43:44.637Z,103369.56
2023-01-23T14:21:41.139Z,103402.84
2023-01-23T14:26:50.190Z,103405.47
2023-01-23T14:31:53.508Z,103401.13
2023-01-23T14:37:06.735Z,103402.84
2023-01-23T14:42:26.343Z,103386.28
2023-01-23T14:47:34.731Z,103388.88
2023-01-23T14:52:38.206Z,103394.13
2023-01-23T14:57:42.392Z,103401.16
2023-01-23T15:02:46.491Z,103396.75
2023-01-23T15:07:54.349Z,103385.38
2023-01-23T15:13:01.953Z,103412.47
2023-01-23T15:18:15.984Z,103378.41
2023-01-23T15:23:31.116Z,103401.13
2023-01-23T15:28:41.554Z,103387.06
2023-01-23T15:33:45.156Z,103400.25
2023-01-23T15:38:48.312Z,103382.75
2023-01-23T15:43:52.197Z,103388.00
2023-01-23T15:48:54.867Z,103363.53
2023-01-23T15:53:57.877Z,103358.25
2023-01-23T15:59:02.674Z,103359.13
2023-01-23T16:04:05.762Z,103353.84
2023-01-23T16:09:12.532Z,103359.09
2023-01-23T16:14:18.729Z,103374.84
2023-01-23T16:19:21.297Z,103359.09
2023-01-23T16:24:25.635Z,103365.25
2023-01-23T16:29:31.685Z,103378.38
2023-01-23T16:34:34.402Z,103363.47
2023-01-23T16:39:37.416Z,103373.13
2023-01-23T16:44:41.346Z,103379.28
2023-01-23T16:49:51.943Z,103345.13
2023-01-23T16:54:56.117Z,103359.16
2023-01-23T17:00:00.292Z,103389.75
2023-01-23T17:05:02.898Z,103384.50
2023-01-23T17:10:06.164Z,103377.50
2023-01-23T17:15:19.830Z,103378.34
2023-01-23T17:20:25.552Z,103381.88
2023-01-23T17:25:31.417Z,103370.50
2023-01-23T17:30:36.508Z,103388.88
2023-01-23T17:35:40.459Z,103396.75
2023-01-23T17:40:43.016Z,103388.88
2023-01-23T17:45:50.049Z,103386.22
2023-01-23T17:50:54.715Z,103385.34
2023-01-23T17:55:57.538Z,103347.75
2023-01-23T18:01:01.649Z,103383.63
2023-01-23T18:06:04.753Z,103395.91
2023-01-23T18:11:17.050Z,103386.28
2023-01-23T18:16:33.603Z,103382.78
2023-01-23T18:21:38.865Z,103389.78
2023-01-23T18:26:50.799Z,103404.66
2023-01-23T18:32:14.844Z,103413.41
2023-01-23T18:37:25.752Z,103430.06
2023-01-23T18:42:41.329Z,103426.53
2023-01-23T18:47:48.166Z,103430.03
2023-01-23T18:53:06.170Z,103420.44
2023-01-23T18:58:26.737Z,103394.19
2023-01-23T19:03:39.794Z,103429.19
2023-01-23T19:08:43.080Z,103437.03
2023-01-23T19:13:57.601Z,103439.66
2023-01-23T19:19:15.734Z,103436.16
2023-01-23T19:24:20.700Z,103437.94
2023-01-23T19:29:23.775Z,103441.41
2023-01-23T19:34:28.150Z,103448.41
2023-01-23T19:39:30.730Z,103444.91
2023-01-23T19:44:42.495Z,103442.31
2023-01-23T19:49:46.432Z,103453.69
2023-01-23T19:54:48.969Z,103458.06
2023-01-23T19:59:51.530Z,103458.94
2023-01-23T20:04:57.563Z,103465.06
2023-01-23T20:10:00.109Z,103449.31
2023-01-23T20:15:02.986Z,103462.44
2023-01-23T20:20:09.601Z,103464.19
2023-01-23T20:25:17.692Z,103453.69
2023-01-23T20:30:21.908Z,103472.09
2023-01-23T20:35:27.228Z,103471.19
2023-01-23T20:40:30.090Z,103427.47
2023-01-23T20:45:33.261Z,103466.81
2023-01-23T20:50:37.858Z,103474.69
2023-01-23T20:55:40.616Z,103458.03
2023-01-23T21:00:44.436Z,103448.44
2023-01-23T21:05:48.329Z,103451.94
2023-01-23T21:10:52.367Z,103445.81
2023-01-23T21:15:58.977Z,103458.03
2023-01-23T21:21:08.544Z,103436.16
2023-01-23T21:26:11.560Z,103434.34
2023-01-23T21:31:16.136Z,103454.34
2023-01-23T21:36:23.166Z,103451.56
2023-01-23T21:41:25.720Z,103453.16
2023-01-23T21:46:28.446Z,103450.75
2023-01-23T21:51:32.709Z,103449.94
2023-01-23T21:56:35.300Z,103448.25
2023-01-23T22:01:42.195Z,103460.56
2023-01-23T22:06:46.875Z,103456.25
2023-01-23T22:11:53.160Z,103448.38
2023-01-23T22:16:57.096Z,103455.38
2023-01-23T22:22:01.050Z,103460.66
2023-01-23T22:27:03.886Z,103456.28
2023-01-23T22:32:06.528Z,103463.28
2023-01-23T22:37:10.517Z,103458.94
2023-01-23T22:42:13.163Z,103382.88
2023-01-23T22:47:15.900Z,103462.44
2023-01-23T22:52:19.820Z,103462.44
2023-01-23T22:57:22.450Z,103469.44
2023-01-23T23:02:24.996Z,103468.56
2023-01-23T23:07:28.992Z,103458.97
2023-01-23T23:12:31.596Z,103449.31
2023-01-23T23:17:34.234Z,103453.72
2023-01-23T23:22:38.171Z,103458.94
2023-01-23T23:27:40.831Z,103465.06
2023-01-23T23:32:43.380Z,103462.44
2023-01-23T23:37:47.332Z,103465.06
2023-01-23T23:42:50.251Z,103465.94
2023-01-23T23:47:52.877Z,103466.81
2023-01-23T23:52:56.916Z,103472.06
2023-01-23T23:58:00.173Z,103465.09
